Aérodrome :
LOGIN :

S'inscrire | Disclaimer

   EN    FR    IT 

 










Légende :    VFR   VFR Marginal   IFR   IFR Intensif   IFR Très Intensif
Visi : 
Plafond : 
>= 8 km
>= 3000ft
5 à 8 km
1000 à 3000 ft
1500m à 5 km
500 à 1000 ft
800 à 1500m
200 à 500 ft
< 800m
< 200 ft
Symboles :   Orages  Brouillard  Fortes neiges  Fortes précipitations  Vent > 20 kt
SIGMETs :   Divers  Orages  Givrage  Turbulence  Onde Orograph.  Cendres Volcan.







- Altitude de l'aérodrome : 370 ft


EBBE - Beauvechain AB

DERNIER METAR :
  • 192255Z AUTO 18011KT 9999 -RA FEW055/// BKN080/// OVC095/// 17/11 Q1007 BLU

METARs EXPIRÉS :
  • 192225Z AUTO 16008KT 9999 FEW055/// SCT080/// OVC100/// 17/11 Q1007 BLU
  • 192155Z AUTO 15007KT 9999 SCT060/// BKN085/// 17/11 Q1007 BLU
  • 192125Z AUTO 16006KT 9999 FEW060/// BKN100/// 17/11 Q1007 BLU
  • 192055Z AUTO 16007KT 9999 BKN065/// BKN100/// 17/11 Q1008 BLU
  • 192025Z AUTO 15007KT 9999 BKN060/// BKN080/// 17/11 Q1008 BLU

TAF TAF EBBE
Valide du 19 à 19h jusqu'au 20 à 07h UTC


191541Z 1919/2007 18006KT 9999 BKN030 BKN055
TEMPO 2000/2006 5000 -RA BKN050 BKN070
BECMG 2005/2007 24015KT BKN018 BKN070
Pas de NOTAMs connus pour ce terrain.
3 SIGMETs publiés pour la FIR Brussels (EBBU) :
 
Turbulence forte
EBBU SIGMET 01 VALID 200300/200700 EBBR
EBBU BRUSSELS FIR SEV TURB FCST S OF LINE N5101 E00231 - N4958 E00438 FL190/350 MOV NE 25KT NC=
Turbulence forte
COR EBBU SIGMET 01 VALID 200300/200700 EBBR
EBBU BRUSSELS FIR SEV TURB FCST S OF LINE N5103 E00238 - N5002 E00444 FL190/350 MOV NE 25KT NC=
Turbulence forte
COR EBBU SIGMET 01 VALID 200300/200700 EBBR
EBBU BRUSSELS FIR SEV TURB FCST S OF LINE N5047 E00305 - N5002 E00444 FL190/350 MOV NE 25KT NC=



MET'MAP, la Météo Aéronautique d'un coup d'oeil ! - Copyright ORBIFLY Décembre 2007 - Disclaimer

ORBIFLY MET'MAP TEAM :

Programmation & Développement : Alexandra Zaïnal
Conception & Développement : Baudouin d'Aumeries
Co-Programmation & Développement : Marc-Olivier Méhu
Soutien technique & logistique : Manuel Goepfert

Contact : metmap@orbifly.com




SOURCES & CREDITS :

   NOAA